Time;durP1;ratioP1;P1;durP2;ratioP2;P2;SDS_P1;SDS_P2;PMS_P1;PMS_P2;Temp;Humidity;BMP_temperature;BMP_pressure;BME280_temperature;BME280_humidity;BME280_pressure;Samples;Min_cycle;Max_cycle;Signal;HPM_P1;HPM_P2
2022/07/04 00:00:18;;;;;;;1.23;1.10;;;21.80;86.30;;;;;;5057366;28;20024;-77
2022/07/04 00:02:45;;;;;;;1.60;1.17;;;21.80;86.50;;;;;;5053450;28;20025;-83
2022/07/04 00:05:11;;;;;;;2.30;1.10;;;21.80;86.40;;;;;;5056285;28;20036;-79
2022/07/04 00:07:37;;;;;;;3.58;1.23;;;21.80;86.60;;;;;;5054762;28;20040;-77
2022/07/04 00:10:05;;;;;;;1.85;1.13;;;21.80;87.10;;;;;;5053473;28;20862;-78
2022/07/04 00:12:30;;;;;;;1.10;0.88;;;21.80;86.70;;;;;;5052296;28;20108;-79
2022/07/04 00:14:56;;;;;;;2.70;1.75;;;21.70;86.90;;;;;;5054556;28;20035;-77
2022/07/04 00:17:22;;;;;;;1.50;1.23;;;21.70;87.20;;;;;;5056694;28;21294;-79
2022/07/04 00:19:47;;;;;;;2.83;1.20;;;21.70;88.00;;;;;;5048545;28;20478;-79
2022/07/04 00:22:13;;;;;;;3.95;1.40;;;21.70;86.90;;;;;;5050795;28;20163;-79
2022/07/04 00:24:39;;;;;;;2.20;1.25;;;21.60;87.40;;;;;;5050862;28;20025;-76
2022/07/04 00:27:05;;;;;;;1.73;1.25;;;21.60;87.90;;;;;;5059398;28;20028;-78
2022/07/04 00:29:31;;;;;;;2.35;1.20;;;21.60;88.00;;;;;;5053597;28;20444;-76
2022/07/04 00:31:56;;;;;;;4.10;1.10;;;21.50;88.40;;;;;;5055443;28;20029;-76
2022/07/04 00:34:22;;;;;;;3.65;1.10;;;21.50;88.90;;;;;;5053443;28;20028;-76
2022/07/04 00:36:47;;;;;;;2.22;1.48;;;21.40;88.70;;;;;;5049124;28;20128;-76
2022/07/04 00:39:13;;;;;;;4.22;1.50;;;21.40;88.70;;;;;;5069279;28;20028;-75
2022/07/04 00:41:39;;;;;;;1.85;1.15;;;21.30;88.80;;;;;;5072349;28;20044;-75
2022/07/04 00:44:07;;;;;;;2.25;1.40;;;21.30;89.10;;;;;;5057946;28;20047;-77
2022/07/04 00:46:33;;;;;;;2.08;0.93;;;21.30;89.60;;;;;;5059185;28;20037;-77
2022/07/04 00:48:59;;;;;;;9.07;1.48;;;21.20;89.60;;;;;;5057174;28;20100;-78
2022/07/04 00:51:25;;;;;;;5.00;1.30;;;21.20;89.90;;;;;;5063329;28;20033;-80
2022/07/04 00:53:52;;;;;;;2.72;1.30;;;21.20;90.10;;;;;;5051550;28;20028;-79
2022/07/04 00:56:19;;;;;;;2.95;1.50;;;21.20;90.00;;;;;;5054558;28;20064;-79
2022/07/04 00:58:45;;;;;;;4.97;1.67;;;21.20;90.20;;;;;;5061664;28;20028;-85
2022/07/04 01:01:11;;;;;;;1.20;1.02;;;21.10;90.00;;;;;;5068013;28;20048;-76
2022/07/04 01:03:36;;;;;;;3.22;1.05;;;21.10;90.10;;;;;;5072171;28;20043;-78
2022/07/04 01:06:03;;;;;;;1.38;1.15;;;21.10;90.30;;;;;;5062626;28;20071;-79
2022/07/04 01:08:28;;;;;;;4.60;1.40;;;21.00;90.40;;;;;;5053754;28;20033;-77
2022/07/04 01:10:54;;;;;;;6.43;1.55;;;21.00;90.50;;;;;;5059058;28;20028;-76
2022/07/04 01:13:21;;;;;;;2.10;1.08;;;21.00;90.50;;;;;;5072619;28;20150;-78
2022/07/04 01:15:47;;;;;;;6.78;1.60;;;20.90;90.60;;;;;;5065792;28;20032;-85
2022/07/04 01:18:12;;;;;;;2.17;1.40;;;21.00;90.70;;;;;;5050623;28;20033;-78
2022/07/04 01:20:38;;;;;;;4.25;1.20;;;20.90;90.80;;;;;;5067653;27;20172;-77
2022/07/04 01:23:04;;;;;;;1.42;1.27;;;20.80;90.80;;;;;;5052899;28;20569;-81
2022/07/04 01:25:31;;;;;;;5.05;1.50;;;20.80;90.90;;;;;;5061151;28;20025;-77
2022/07/04 01:28:00;;;;;;;1.88;1.15;;;20.80;91.10;;;;;;5058927;28;20025;-77
2022/07/04 01:30:27;;;;;;;2.97;1.75;;;20.70;91.30;;;;;;5053951;28;20029;-82
2022/07/04 01:32:53;;;;;;;2.47;1.30;;;20.70;91.40;;;;;;5064586;28;20473;-78
2022/07/04 01:35:19;;;;;;;3.75;1.65;;;20.70;91.60;;;;;;5071584;28;20043;-78
2022/07/04 01:37:45;;;;;;;1.88;1.25;;;20.70;91.60;;;;;;5059050;28;20095;-85
2022/07/04 01:40:12;;;;;;;1.55;1.10;;;20.60;91.80;;;;;;5060967;28;20466;-76
2022/07/04 01:42:38;;;;;;;2.38;1.17;;;20.60;91.90;;;;;;5059122;28;20029;-76
2022/07/04 01:45:05;;;;;;;3.03;1.48;;;20.50;92.00;;;;;;5051666;28;20051;-75
2022/07/04 01:47:31;;;;;;;3.25;1.55;;;20.50;92.10;;;;;;5061062;28;20455;-79
2022/07/04 01:49:57;;;;;;;2.13;1.20;;;20.50;92.30;;;;;;5051846;28;20521;-76
2022/07/04 01:52:22;;;;;;;3.53;1.20;;;20.40;92.50;;;;;;5054109;28;20109;-78
2022/07/04 01:54:48;;;;;;;2.55;1.40;;;20.40;92.80;;;;;;5071173;28;20031;-83
2022/07/04 01:57:13;;;;;;;5.40;1.55;;;20.40;92.70;;;;;;5072985;28;20412;-76
2022/07/04 02:02:24;;;;;;;3.03;1.27;;;;;;;;;;5053466;28;20052;-75
2022/07/04 02:04:51;;;;;;;2.17;1.10;;;;;;;;;;5059087;28;20025;-76
2022/07/04 02:07:17;;;;;;;3.05;1.20;;;;;;;;;;5052470;28;20048;-77
2022/07/04 02:09:43;;;;;;;2.00;1.45;;;;;;;;;;5055723;28;20020;-78
2022/07/04 02:14:53;;;;;;;2.67;1.25;;;20.30;93.50;;;;;;5044367;28;20075;-77
2022/07/04 02:17:19;;;;;;;2.35;1.45;;;20.20;93.60;;;;;;5051919;28;20056;-77
2022/07/04 02:19:45;;;;;;;3.70;1.50;;;20.30;93.70;;;;;;5045190;28;20071;-78
2022/07/04 02:22:10;;;;;;;3.10;1.35;;;20.20;94.10;;;;;;5065007;28;20060;-77
2022/07/04 02:24:36;;;;;;;3.97;1.30;;;20.20;94.20;;;;;;5071134;28;20447;-77
2022/07/04 02:27:02;;;;;;;4.45;1.40;;;20.10;94.30;;;;;;5071490;28;20077;-78
2022/07/04 02:29:28;;;;;;;5.72;1.48;;;20.00;94.50;;;;;;5071441;28;20032;-78
2022/07/04 02:31:53;;;;;;;4.40;1.48;;;20.00;94.70;;;;;;5077336;28;20037;-78
2022/07/04 02:34:19;;;;;;;10.35;1.38;;;19.90;94.90;;;;;;5051417;28;20028;-77
2022/07/04 02:36:45;;;;;;;2.08;1.17;;;19.80;95.10;;;;;;5071163;28;20032;-77
2022/07/04 02:39:10;;;;;;;2.95;1.20;;;19.90;95.30;;;;;;5070391;28;20221;-76
2022/07/04 02:41:36;;;;;;;3.10;1.48;;;19.90;95.20;;;;;;5068872;28;20042;-76
2022/07/04 02:44:02;;;;;;;3.67;1.20;;;19.80;95.40;;;;;;5069948;28;20389;-82
2022/07/04 02:46:28;;;;;;;4.88;1.20;;;19.80;95.50;;;;;;5070112;28;20047;-77
2022/07/04 02:48:54;;;;;;;3.28;1.50;;;19.70;95.70;;;;;;5066754;28;20024;-80
2022/07/04 02:51:20;;;;;;;3.22;1.40;;;19.70;95.80;;;;;;5069634;28;20039;-77
2022/07/04 02:53:46;;;;;;;4.88;1.52;;;19.60;96.00;;;;;;5072132;28;20033;-76
2022/07/04 02:56:14;;;;;;;4.50;1.80;;;;;;;;;;5070422;28;20036;-76
2022/07/04 02:58:39;;;;;;;2.70;1.48;;;19.50;96.40;;;;;;5071815;28;20024;-78
2022/07/04 03:01:05;;;;;;;2.40;1.30;;;19.40;96.90;;;;;;5071331;28;20032;-78
2022/07/04 03:03:31;;;;;;;2.28;1.00;;;19.40;97.00;;;;;;5068628;28;20090;-77
2022/07/04 03:05:56;;;;;;;4.28;1.30;;;19.40;97.20;;;;;;5067282;28;20446;-78
2022/07/04 03:08:22;;;;;;;5.53;1.50;;;19.30;97.40;;;;;;5071233;28;20457;-77
2022/07/04 03:10:51;;;;;;;2.42;1.42;;;19.30;97.50;;;;;;5071443;28;20025;-79
2022/07/04 03:13:17;;;;;;;3.92;1.70;;;19.20;97.80;;;;;;5071155;28;20504;-75
2022/07/04 03:15:43;;;;;;;5.80;1.50;;;;;;;;;;5070105;28;20021;-76
2022/07/04 03:18:09;;;;;;;11.85;1.50;;;19.20;97.90;;;;;;5071310;28;20519;-75
2022/07/04 03:20:35;;;;;;;3.58;1.20;;;19.20;98.30;;;;;;5049420;28;20045;-78
2022/07/04 03:23:00;;;;;;;3.97;1.40;;;19.20;98.40;;;;;;5051023;28;20033;-76
2022/07/04 03:25:26;;;;;;;1.40;1.20;;;19.10;98.70;;;;;;5055360;28;20079;-77
2022/07/04 03:27:52;;;;;;;2.35;1.42;;;19.10;98.80;;;;;;5054540;28;20033;-84
2022/07/04 03:30:18;;;;;;;3.60;1.50;;;19.10;99.20;;;;;;5054256;28;20029;-76
2022/07/04 03:32:43;;;;;;;3.15;1.35;;;19.00;99.40;;;;;;5032523;28;20516;-78
2022/07/04 03:35:09;;;;;;;3.35;1.60;;;18.90;99.60;;;;;;5050881;28;20413;-78
2022/07/04 03:37:35;;;;;;;4.15;1.80;;;18.90;99.90;;;;;;5054296;28;20020;-79
2022/07/04 03:40:00;;;;;;;2.15;1.30;;;18.90;99.90;;;;;;5038768;28;20367;-78
2022/07/04 03:42:26;;;;;;;3.15;1.30;;;18.90;99.90;;;;;;5054529;28;20136;-77
2022/07/04 03:44:52;;;;;;;1.77;1.45;;;18.90;99.90;;;;;;5054057;28;20118;-79
2022/07/04 03:47:18;;;;;;;1.40;1.10;;;18.80;99.90;;;;;;5049139;28;20137;-75
2022/07/04 03:49:43;;;;;;;2.65;1.38;;;18.80;99.90;;;;;;5054705;28;20032;-77
2022/07/04 03:52:09;;;;;;;2.67;1.33;;;18.80;99.90;;;;;;5053502;28;20081;-76
2022/07/04 03:54:35;;;;;;;4.53;1.60;;;18.80;99.90;;;;;;5053971;28;20056;-76
2022/07/04 03:57:00;;;;;;;3.33;1.42;;;18.80;99.90;;;;;;5036258;28;20029;-77
2022/07/04 03:59:26;;;;;;;2.17;1.23;;;18.80;99.90;;;;;;5053987;28;20028;-78
2022/07/04 04:01:52;;;;;;;4.93;1.50;;;18.80;99.90;;;;;;5035514;28;20043;-79
2022/07/04 04:07:01;;;;;;;1.80;1.50;;;18.80;99.90;;;;;;5053327;28;20036;-77
2022/07/04 04:09:27;;;;;;;5.55;1.77;;;18.70;99.90;;;;;;5053986;28;20025;-77
2022/07/04 04:11:53;;;;;;;1.88;1.60;;;18.80;99.90;;;;;;5054174;28;20439;-81
2022/07/04 04:14:18;;;;;;;5.47;2.10;;;18.70;99.90;;;;;;5043442;28;20477;-76
2022/07/04 04:16:44;;;;;;;5.82;2.42;;;18.80;99.90;;;;;;5054178;28;20084;-77
2022/07/04 04:19:10;;;;;;;7.78;2.95;;;18.80;99.90;;;;;;5053563;28;20057;-78
2022/07/04 04:21:36;;;;;;;3.38;2.58;;;18.80;99.90;;;;;;5054234;27;20045;-78
2022/07/04 04:24:02;;;;;;;5.68;1.70;;;18.70;99.90;;;;;;5053127;28;20401;-77
2022/07/04 04:26:28;;;;;;;4.25;1.70;;;18.70;99.90;;;;;;5053185;28;20104;-78
2022/07/04 04:28:54;;;;;;;3.55;1.88;;;18.80;99.90;;;;;;5043538;28;20032;-83
2022/07/04 04:31:19;;;;;;;2.45;1.60;;;18.80;99.90;;;;;;5053258;28;20028;-78
2022/07/04 04:33:45;;;;;;;2.83;1.30;;;18.80;99.90;;;;;;5048088;28;20086;-79
2022/07/04 04:36:11;;;;;;;2.50;1.52;;;18.80;99.90;;;;;;5052805;28;20040;-77
2022/07/04 04:38:36;;;;;;;3.95;1.60;;;18.80;99.90;;;;;;5053486;28;20451;-77
2022/07/04 04:41:02;;;;;;;4.25;1.70;;;18.80;99.90;;;;;;5050712;28;20039;-76
2022/07/04 04:43:28;;;;;;;7.25;1.30;;;18.80;99.90;;;;;;5053357;28;20116;-76
2022/07/04 04:45:54;;;;;;;2.25;1.50;;;18.80;99.90;;;;;;5046153;28;20481;-76
2022/07/04 04:48:19;;;;;;;3.53;1.40;;;18.90;99.90;;;;;;5048674;28;20076;-76
2022/07/04 04:50:45;;;;;;;2.63;1.77;;;18.80;99.90;;;;;;5052904;28;20485;-76
2022/07/04 04:53:12;;;;;;;5.50;1.80;;;18.90;99.90;;;;;;5051968;28;20078;-75
2022/07/04 04:55:38;;;;;;;4.43;1.40;;;18.90;99.90;;;;;;5052994;28;20075;-75
2022/07/04 04:58:04;;;;;;;3.15;1.70;;;18.90;99.90;;;;;;5052387;28;20041;-76
2022/07/04 05:00:30;;;;;;;3.55;1.33;;;18.90;99.90;;;;;;5050513;28;20029;-74
2022/07/04 05:02:55;;;;;;;4.55;1.58;;;19.00;99.90;;;;;;5047246;28;20029;-83
2022/07/04 05:05:21;;;;;;;4.82;1.50;;;19.00;99.90;;;;;;5052438;28;20462;-77
2022/07/04 05:07:47;;;;;;;4.10;1.42;;;19.00;99.90;;;;;;5052509;28;20470;-77
2022/07/04 05:10:12;;;;;;;1.92;1.15;;;19.10;99.90;;;;;;5050887;28;20028;-79
2022/07/04 05:12:38;;;;;;;2.88;1.42;;;19.10;99.90;;;;;;5038686;28;20033;-76
2022/07/04 05:15:04;;;;;;;2.00;1.50;;;19.10;99.90;;;;;;5038646;28;20035;-76
2022/07/04 05:17:30;;;;;;;3.65;1.40;;;19.10;99.90;;;;;;5036746;28;20715;-74
2022/07/04 05:19:55;;;;;;;4.28;1.25;;;19.10;99.90;;;;;;5036198;28;20037;-76
2022/07/04 05:22:21;;;;;;;4.72;1.55;;;19.10;99.90;;;;;;5056857;28;20045;-76
2022/07/04 05:24:47;;;;;;;1.73;0.90;;;19.10;99.90;;;;;;5057280;28;20035;-76
2022/07/04 05:27:12;;;;;;;1.92;1.10;;;19.10;99.90;;;;;;5052618;28;20021;-76
2022/07/04 05:29:38;;;;;;;5.07;1.63;;;19.20;99.90;;;;;;5058450;28;20025;-76
2022/07/04 05:32:05;;;;;;;3.47;1.30;;;19.20;99.90;;;;;;5054371;28;20068;-74
2022/07/04 05:34:30;;;;;;;4.07;1.67;;;19.20;99.90;;;;;;5052708;28;20032;-79
2022/07/04 05:36:56;;;;;;;4.72;1.50;;;19.40;99.90;;;;;;5051616;28;20025;-75
2022/07/04 05:39:22;;;;;;;1.50;1.30;;;19.30;99.90;;;;;;5052035;28;20029;-76
2022/07/04 05:41:47;;;;;;;1.90;1.45;;;19.40;99.90;;;;;;5068873;28;20040;-75
2022/07/04 05:44:13;;;;;;;7.45;1.65;;;19.50;99.90;;;;;;5070704;28;20099;-74
2022/07/04 05:46:38;;;;;;;5.70;1.75;;;19.50;99.90;;;;;;5070526;28;20024;-78
2022/07/04 05:49:04;;;;;;;4.00;1.50;;;19.60;99.90;;;;;;5067961;28;20037;-76
2022/07/04 05:51:30;;;;;;;3.63;1.52;;;19.70;99.90;;;;;;5058742;28;20107;-77
2022/07/04 05:53:55;;;;;;;2.88;1.63;;;19.80;99.90;;;;;;5057912;28;20029;-77
2022/07/04 05:56:21;;;;;;;2.92;1.05;;;19.90;99.90;;;;;;5072495;28;20764;-80
2022/07/04 05:58:48;;;;;;;4.78;1.30;;;20.00;99.90;;;;;;5072132;28;20052;-77
2022/07/04 06:01:13;;;;;;;7.70;1.30;;;20.10;99.80;;;;;;5060376;28;20025;-78
2022/07/04 06:03:39;;;;;;;1.70;1.23;;;20.30;99.40;;;;;;5059673;28;20040;-79
2022/07/04 06:06:05;;;;;;;2.08;1.05;;;20.40;99.00;;;;;;5049941;28;20107;-77
2022/07/04 06:08:31;;;;;;;3.55;1.58;;;20.60;98.60;;;;;;5055940;28;20032;-75
2022/07/04 06:10:56;;;;;;;4.40;1.52;;;20.60;98.50;;;;;;5058867;28;20028;-76
2022/07/04 06:13:22;;;;;;;1.85;1.20;;;20.60;98.40;;;;;;5061514;28;20040;-76
2022/07/04 06:15:49;;;;;;;4.13;1.88;;;20.60;98.40;;;;;;5062264;28;20024;-76
2022/07/04 06:18:15;;;;;;;3.85;1.38;;;20.80;97.70;;;;;;5064883;28;20033;-78
2022/07/04 06:20:41;;;;;;;3.70;1.30;;;20.80;97.60;;;;;;5045656;28;20033;-75
2022/07/04 06:23:07;;;;;;;6.15;1.45;;;20.80;98.20;;;;;;5035580;28;20098;-76
2022/07/04 06:25:34;;;;;;;3.45;1.27;;;20.80;97.50;;;;;;5030493;28;20029;-76
2022/07/04 06:28:00;;;;;;;3.67;1.17;;;20.70;97.60;;;;;;5037317;28;20035;-82
2022/07/04 06:30:26;;;;;;;5.72;1.65;;;20.70;97.90;;;;;;5041678;28;20482;-77
2022/07/04 06:32:54;;;;;;;4.15;1.48;;;20.70;97.80;;;;;;5036972;28;20057;-77
2022/07/04 06:38:06;;;;;;;9.60;1.38;;;20.70;98.00;;;;;;5042792;28;20048;-77
2022/07/04 06:40:33;;;;;;;5.80;1.92;;;20.90;97.80;;;;;;5037022;28;20024;-78
2022/07/04 06:42:58;;;;;;;5.30;1.80;;;21.00;97.20;;;;;;5030063;28;20087;-81
2022/07/04 06:45:24;;;;;;;6.13;1.40;;;21.00;97.20;;;;;;5009362;28;20038;-77
2022/07/04 06:47:50;;;;;;;5.75;1.52;;;21.10;97.20;;;;;;5031124;28;20029;-76
2022/07/04 06:50:16;;;;;;;4.32;1.60;;;21.20;97.10;;;;;;5029300;28;20045;-77
2022/07/04 06:52:41;;;;;;;5.00;1.75;;;21.30;97.30;;;;;;5040085;28;20040;-76
2022/07/04 06:55:08;;;;;;;6.72;1.80;;;21.50;96.90;;;;;;5042289;28;20033;-77
2022/07/04 06:57:34;;;;;;;4.13;1.40;;;21.70;96.10;;;;;;5031199;28;20275;-76
2022/07/04 07:00:00;;;;;;;5.43;2.00;;;21.70;95.70;;;;;;5028189;28;20056;-82
2022/07/04 07:02:25;;;;;;;3.53;1.30;;;21.70;95.90;;;;;;5031281;28;20034;-79
2022/07/04 07:04:53;;;;;;;5.00;1.20;;;21.70;96.00;;;;;;5028079;28;20037;-76
2022/07/04 07:07:19;;;;;;;3.30;1.50;;;21.70;96.00;;;;;;5028941;28;20060;-76
2022/07/04 07:09:45;;;;;;;4.53;1.63;;;21.90;95.60;;;;;;5029499;28;20060;-76
2022/07/04 07:12:10;;;;;;;7.22;2.05;;;21.90;95.30;;;;;;5025828;28;20032;-77
2022/07/04 07:14:36;;;;;;;3.22;1.35;;;22.00;95.40;;;;;;5029647;28;20075;-77
2022/07/04 07:17:02;;;;;;;4.22;1.23;;;21.90;95.50;;;;;;5029184;28;20041;-82
2022/07/04 07:19:28;;;;;;;2.65;1.60;;;21.90;95.90;;;;;;5030956;28;20048;-78
2022/07/04 07:21:54;;;;;;;3.72;1.75;;;22.00;95.90;;;;;;5038713;28;20053;-76
2022/07/04 07:24:19;;;;;;;3.63;1.60;;;22.10;95.60;;;;;;5041081;28;20085;-80
2022/07/04 07:26:45;;;;;;;3.22;1.35;;;22.20;95.50;;;;;;5042777;28;20038;-76
2022/07/04 07:29:10;;;;;;;5.80;1.67;;;22.40;94.90;;;;;;5042413;28;20034;-76
2022/07/04 07:31:36;;;;;;;3.80;1.40;;;22.40;94.90;;;;;;5039326;28;20029;-75
2022/07/04 07:34:02;;;;;;;4.88;2.00;;;22.40;95.20;;;;;;5042183;28;20025;-77
2022/07/04 07:36:27;;;;;;;2.42;1.40;;;22.40;95.10;;;;;;5045393;28;20108;-77
2022/07/04 07:38:55;;;;;;;4.10;1.58;;;22.60;95.00;;;;;;5041713;28;20521;-76
2022/07/04 07:41:21;;;;;;;5.70;1.58;;;22.60;94.50;;;;;;5042247;28;20112;-75
2022/07/04 07:43:47;;;;;;;7.38;1.85;;;22.50;94.80;;;;;;5044753;28;20037;-76
2022/07/04 07:46:12;;;;;;;5.30;1.63;;;22.50;95.00;;;;;;5040108;28;20029;-80
2022/07/04 07:48:38;;;;;;;4.05;1.60;;;22.50;94.90;;;;;;5039577;28;20036;-76
2022/07/04 07:51:04;;;;;;;7.80;2.28;;;22.50;95.00;;;;;;5034569;28;20052;-81
2022/07/04 07:53:29;;;;;;;3.35;1.75;;;22.50;95.30;;;;;;5035332;28;20492;-77
2022/07/04 07:55:55;;;;;;;4.93;1.30;;;22.60;94.60;;;;;;5044508;28;20120;-76
2022/07/04 07:58:20;;;;;;;6.03;1.75;;;22.70;94.70;;;;;;5039904;28;20628;-78
2022/07/04 08:00:47;;;;;;;9.15;1.60;;;22.70;94.50;;;;;;5040797;28;20030;-77
2022/07/04 08:05:57;;;;;;;3.33;1.50;;;22.90;94.10;;;;;;5037414;28;20160;-76
2022/07/04 08:08:23;;;;;;;7.95;2.50;;;22.80;94.20;;;;;;5030789;28;20675;-78
2022/07/04 08:10:50;;;;;;;4.93;1.58;;;22.60;94.00;;;;;;5047500;28;20493;-76
2022/07/04 08:13:15;;;;;;;5.00;1.70;;;22.60;94.70;;;;;;5052977;28;20041;-76
2022/07/04 08:15:41;;;;;;;3.05;2.00;;;22.50;95.10;;;;;;5035270;28;20033;-76
2022/07/04 08:18:07;;;;;;;4.20;1.60;;;22.50;94.80;;;;;;5046997;28;20028;-75
2022/07/04 08:20:32;;;;;;;4.25;1.30;;;22.50;95.10;;;;;;5037349;28;20079;-76
2022/07/04 08:22:58;;;;;;;2.97;1.60;;;22.60;94.80;;;;;;5051736;28;20397;-77
2022/07/04 08:25:24;;;;;;;1.55;1.40;;;22.70;94.60;;;;;;5056044;28;20576;-78
2022/07/04 08:27:49;;;;;;;4.97;1.67;;;22.70;94.80;;;;;;5061817;28;20025;-79
2022/07/04 08:30:15;;;;;;;4.90;2.03;;;22.70;94.70;;;;;;5060388;28;20075;-77
2022/07/04 08:32:41;;;;;;;4.20;1.60;;;22.70;94.80;;;;;;5055371;28;20043;-77
2022/07/04 08:35:07;;;;;;;3.78;1.70;;;22.70;94.80;;;;;;5071723;28;20036;-78
2022/07/04 08:37:33;;;;;;;5.93;1.85;;;22.80;94.60;;;;;;5056865;28;20041;-77
2022/07/04 08:39:59;;;;;;;5.97;1.92;;;22.80;94.40;;;;;;5053186;28;20155;-80
2022/07/04 08:42:24;;;;;;;4.82;1.73;;;22.80;94.60;;;;;;5045234;28;20029;-76
2022/07/04 08:44:52;;;;;;;3.47;2.00;;;22.90;94.60;;;;;;5057313;28;20063;-77
2022/07/04 08:47:20;;;;;;;5.40;2.00;;;23.00;94.20;;;;;;5048097;28;20072;-76
2022/07/04 08:50:11;;;;;;;5.60;1.90;;;23.00;93.90;;;;;;5064039;28;20029;-76
2022/07/04 08:52:55;;;;;;;9.18;1.77;;;23.00;93.90;;;;;;5048411;28;20091;-77
2022/07/04 08:58:29;;;;;;;6.65;1.88;;;23.10;93.70;;;;;;5050345;28;20036;-83
2022/07/04 09:00:59;;;;;;;2.45;1.60;;;23.20;93.30;;;;;;5053225;28;20373;-77
2022/07/04 09:03:26;;;;;;;6.00;1.75;;;23.20;93.50;;;;;;5051163;28;20032;-79
2022/07/04 09:05:53;;;;;;;5.53;1.48;;;23.20;93.70;;;;;;5045865;28;20068;-77
2022/07/04 09:08:19;;;;;;;5.20;1.90;;;23.30;93.70;;;;;;5051338;28;20029;-77
2022/07/04 09:10:46;;;;;;;5.25;1.73;;;23.50;93.30;;;;;;5052805;28;20397;-78
2022/07/04 09:13:14;;;;;;;5.22;1.48;;;23.50;92.80;;;;;;5052659;28;20090;-80
2022/07/04 09:15:45;;;;;;;6.25;2.05;;;23.60;93.00;;;;;;5057590;28;20021;-77
2022/07/04 09:18:25;;;;;;;4.90;1.85;;;23.60;92.50;;;;;;5067107;28;20025;-77
2022/07/04 09:20:55;;;;;;;5.57;1.65;;;23.70;92.50;;;;;;5052131;28;20545;-78
2022/07/04 09:23:26;;;;;;;6.35;2.03;;;23.70;92.20;;;;;;5069431;28;20044;-76
2022/07/04 09:26:12;;;;;;;7.28;1.98;;;23.70;92.50;;;;;;5064125;28;20383;-78
2022/07/04 09:28:39;;;;;;;9.18;2.20;;;23.70;92.20;;;;;;5055501;28;20103;-77
2022/07/04 09:31:19;;;;;;;5.05;2.03;;;23.70;92.50;;;;;;5056416;28;20032;-81
2022/07/04 09:33:58;;;;;;;4.68;2.17;;;23.80;92.80;;;;;;5052081;28;20037;-76
2022/07/04 09:36:29;;;;;;;4.90;1.73;;;23.90;91.80;;;;;;5057625;28;20098;-76
2022/07/04 09:39:17;;;;;;;9.73;2.20;;;24.00;92.00;;;;;;5053609;28;20029;-77
2022/07/04 09:41:56;;;;;;;11.82;2.13;;;24.10;91.80;;;;;;5053934;28;20444;-77
2022/07/04 09:44:28;;;;;;;11.60;1.98;;;24.10;91.70;;;;;;5050508;28;20025;-79
2022/07/04 09:46:54;;;;;;;10.88;2.55;;;24.40;91.50;;;;;;5051804;28;20075;-76
2022/07/04 09:49:20;;;;;;;6.20;1.80;;;24.70;91.20;;;;;;5048340;28;20029;-77
2022/07/04 09:51:48;;;;;;;6.13;2.10;;;25.00;90.80;;;;;;5061263;28;20039;-78
2022/07/04 09:54:26;;;;;;;7.88;1.95;;;25.30;90.00;;;;;;5067958;28;20071;-78
2022/07/04 09:56:55;;;;;;;6.20;2.03;;;25.50;88.90;;;;;;5058168;28;20033;-77
2022/07/04 09:59:22;;;;;;;7.47;1.65;;;25.60;88.90;;;;;;5060985;28;20029;-78
2022/07/04 10:01:48;;;;;;;4.97;2.00;;;25.90;87.60;;;;;;5065227;28;20024;-78
2022/07/04 10:04:14;;;;;;;4.32;1.67;;;26.10;86.10;;;;;;5062629;28;20016;-77
2022/07/04 10:06:45;;;;;;;6.43;1.75;;;26.20;83.40;;;;;;5053047;28;20032;-77
2022/07/04 10:09:16;;;;;;;6.68;2.00;;;26.20;84.10;;;;;;5059185;28;20097;-81
2022/07/04 10:11:43;;;;;;;4.55;2.00;;;26.10;83.90;;;;;;5059478;28;20071;-76
2022/07/04 10:14:11;;;;;;;3.92;1.60;;;26.00;84.20;;;;;;5058341;28;20078;-78
2022/07/04 10:16:38;;;;;;;8.18;2.03;;;26.20;84.00;;;;;;5065077;28;20028;-79
2022/07/04 10:19:05;;;;;;;7.53;1.85;;;26.40;82.20;;;;;;5051794;28;20029;-77
2022/07/04 10:21:31;;;;;;;2.42;1.45;;;26.50;82.30;;;;;;5060137;28;20892;-77
2022/07/04 10:23:58;;;;;;;5.50;1.75;;;26.40;83.00;;;;;;5048480;28;20043;-76
2022/07/04 10:26:24;;;;;;;3.03;1.50;;;26.40;82.50;;;;;;5067916;28;20028;-77
2022/07/04 10:28:51;;;;;;;5.60;2.05;;;26.40;81.20;;;;;;5059039;28;20051;-76
2022/07/04 10:31:19;;;;;;;5.63;1.90;;;26.40;79.80;;;;;;5065724;28;20103;-78
2022/07/04 10:33:45;;;;;;;7.43;1.90;;;26.50;80.50;;;;;;5049132;28;20041;-76
2022/07/04 10:36:17;;;;;;;3.03;1.50;;;26.20;80.30;;;;;;5050739;28;20029;-81
2022/07/04 10:39:00;;;;;;;6.55;1.75;;;26.20;82.10;;;;;;5050143;28;20478;-72
2022/07/04 10:41:28;;;;;;;3.38;1.25;;;26.30;81.80;;;;;;5053280;28;20035;-76
2022/07/04 10:43:56;;;;;;;1.67;1.58;;;26.40;81.20;;;;;;5063061;28;20529;-77
2022/07/04 10:46:36;;;;;;;4.10;2.10;;;26.80;81.00;;;;;;5060895;28;20037;-78
2022/07/04 10:49:01;;;;;;;2.50;1.77;;;26.90;79.30;;;;;;5061298;28;20509;-78
2022/07/04 10:51:45;;;;;;;3.83;1.98;;;26.90;80.00;;;;;;5055289;28;20037;-76
2022/07/04 10:54:10;;;;;;;5.90;2.13;;;26.90;79.60;;;;;;5045058;28;20032;-80
2022/07/04 10:56:42;;;;;;;5.20;1.80;;;27.00;78.70;;;;;;5054523;28;20029;-76
2022/07/04 10:59:25;;;;;;;4.70;1.75;;;26.90;80.20;;;;;;5058798;28;20032;-76
2022/07/04 11:02:22;;;;;;;4.43;1.90;;;26.90;80.50;;;;;;5069440;28;20493;-77
2022/07/04 11:04:55;;;;;;;3.70;1.73;;;26.90;78.70;;;;;;5067514;28;20108;-77
2022/07/04 11:07:40;;;;;;;4.10;1.67;;;26.80;79.20;;;;;;5063107;28;20116;-79
2022/07/04 11:10:12;;;;;;;8.23;2.10;;;26.80;79.10;;;;;;5050583;28;20029;-83
2022/07/04 11:15:25;;;;;;;4.28;1.80;;;26.70;80.10;;;;;;5054040;28;20108;-80
2022/07/04 11:17:54;;;;;;;4.82;2.22;;;26.80;79.30;;;;;;5057028;28;20032;-79
2022/07/04 11:20:21;;;;;;;7.28;2.13;;;27.00;78.00;;;;;;5054752;28;20475;-78
2022/07/04 11:22:46;;;;;;;4.32;1.83;;;27.20;78.00;;;;;;5050292;28;20505;-73
2022/07/04 11:25:13;;;;;;;9.93;2.08;;;27.40;77.80;;;;;;5050056;28;20033;-79
2022/07/04 11:27:39;;;;;;;3.13;1.95;;;27.60;77.60;;;;;;5053764;28;20029;-77
2022/07/04 11:30:06;;;;;;;6.20;1.88;;;27.70;76.80;;;;;;5057012;28;20397;-77
2022/07/04 11:32:34;;;;;;;4.28;2.17;;;27.80;76.10;;;;;;5048118;28;20040;-76
2022/07/04 11:35:00;;;;;;;4.60;1.90;;;27.50;76.20;;;;;;5048535;28;20036;-76
2022/07/04 11:37:26;;;;;;;3.92;1.45;;;27.40;77.80;;;;;;5050112;28;20044;-77
2022/07/04 11:45:02;;;;;;;5.50;1.80;;;27.30;76.90;;;;;;5049487;28;20461;-76
2022/07/04 11:45:24;;;;;;;3.90;2.00;;;27.40;77.10;;;;;;5052405;28;20104;-75
2022/07/04 11:47:50;;;;;;;2.35;1.40;;;27.80;75.50;;;;;;5052723;28;20425;-76
2022/07/04 11:50:18;;;;;;;5.00;1.92;;;28.00;75.60;;;;;;5060362;28;20097;-79
2022/07/04 11:52:53;;;;;;;3.78;1.63;;;28.20;74.40;;;;;;5051754;28;20707;-76
2022/07/04 11:55:21;;;;;;;6.32;2.15;;;28.30;74.50;;;;;;5046876;28;20055;-76
2022/07/04 11:57:49;;;;;;;6.38;2.00;;;28.30;73.80;;;;;;5047989;28;20029;-76
2022/07/04 12:00:20;;;;;;;4.18;1.90;;;28.40;74.20;;;;;;5061934;28;20032;-81
2022/07/04 12:02:47;;;;;;;3.05;1.70;;;28.40;73.00;;;;;;5053315;28;20048;-76
2022/07/04 12:05:14;;;;;;;5.15;1.95;;;28.40;74.10;;;;;;5052880;28;20037;-80
2022/07/04 12:07:44;;;;;;;6.18;1.80;;;28.70;74.10;;;;;;5052627;28;20377;-75
2022/07/04 12:10:12;;;;;;;3.85;1.80;;;29.00;73.20;;;;;;5065549;28;20071;-76
2022/07/04 12:12:58;;;;;;;3.30;1.65;;;29.30;71.80;;;;;;5053174;28;20469;-76
2022/07/04 12:15:25;;;;;;;4.05;1.70;;;29.40;70.90;;;;;;5053915;28;20079;-75
2022/07/04 12:17:55;;;;;;;2.88;1.75;;;29.20;70.90;;;;;;5053716;28;20108;-74
2022/07/04 12:20:23;;;;;;;6.28;1.83;;;29.10;71.30;;;;;;5056088;28;20025;-76
2022/07/04 12:22:51;;;;;;;5.85;1.80;;;29.00;70.70;;;;;;5029806;28;20042;-75
2022/07/04 12:25:26;;;;;;;4.63;1.67;;;28.90;71.50;;;;;;5047669;28;20040;-78
2022/07/04 12:28:11;;;;;;;3.30;1.75;;;28.80;72.40;;;;;;5050219;28;20048;-75
2022/07/04 12:30:52;;;;;;;3.92;1.60;;;28.70;71.20;;;;;;5038932;28;20041;-76
2022/07/04 12:33:19;;;;;;;3.47;2.08;;;28.80;71.90;;;;;;5032173;28;20033;-79
2022/07/04 12:35:49;;;;;;;5.82;1.38;;;28.80;71.00;;;;;;5040345;28;20107;-74
2022/07/04 12:38:16;;;;;;;6.10;1.40;;;28.90;71.10;;;;;;5047005;28;20474;-78
2022/07/04 12:41:07;;;;;;;4.55;1.50;;;29.10;70.60;;;;;;5039682;28;20028;-75
2022/07/04 12:43:42;;;;;;;1.77;1.20;;;29.30;70.30;;;;;;5038092;28;20038;-76
2022/07/04 12:46:10;;;;;;;4.75;1.50;;;29.50;69.70;;;;;;5052794;28;20033;-77
2022/07/04 12:48:37;;;;;;;2.80;1.20;;;29.80;69.20;;;;;;5042625;28;20472;-76
2022/07/04 12:51:10;;;;;;;6.60;1.80;;;30.00;70.70;;;;;;5051941;28;20032;-75
2022/07/04 12:53:37;;;;;;;1.30;1.13;;;30.20;68.60;;;;;;5048922;28;20648;-75
2022/07/04 12:56:03;;;;;;;2.47;1.50;;;30.40;68.10;;;;;;5043079;28;20154;-77
2022/07/04 12:58:29;;;;;;;4.05;1.95;;;30.20;66.50;;;;;;5034712;28;20446;-77
2022/07/04 13:00:55;;;;;;;6.95;1.50;;;29.80;67.40;;;;;;5034168;28;20476;-76
2022/07/04 13:03:20;;;;;;;5.63;1.83;;;29.40;68.40;;;;;;5033863;28;20041;-78
2022/07/04 13:05:46;;;;;;;5.82;1.80;;;29.20;68.90;;;;;;5031794;28;20140;-77
2022/07/04 13:08:12;;;;;;;5.82;2.08;;;29.00;69.00;;;;;;5036750;28;20032;-75
2022/07/04 13:10:37;;;;;;;4.65;1.40;;;29.00;70.60;;;;;;5042556;28;20032;-75